sensor_id;sensor_type;location;lat;lon;timestamp;P1;durP1;ratioP1;P2;durP2;ratioP2
57113;SDS011;42994;51.606;9.988;2024-03-08T00:00:04;38.72;;;22.30;;
57113;SDS011;42994;51.606;9.988;2024-03-08T00:02:37;40.60;;;23.02;;
57113;SDS011;42994;51.606;9.988;2024-03-08T00:05:05;37.75;;;21.83;;
57113;SDS011;42994;51.606;9.988;2024-03-08T00:07:35;43.60;;;23.27;;
57113;SDS011;42994;51.606;9.988;2024-03-08T00:10:02;36.75;;;22.45;;
57113;SDS011;42994;51.606;9.988;2024-03-08T00:12:29;43.67;;;22.02;;
57113;SDS011;42994;51.606;9.988;2024-03-08T00:14:57;44.10;;;23.10;;
57113;SDS011;42994;51.606;9.988;2024-03-08T00:17:24;42.67;;;24.15;;
57113;SDS011;42994;51.606;9.988;2024-03-08T00:19:52;37.58;;;21.98;;
57113;SDS011;42994;51.606;9.988;2024-03-08T00:22:19;43.70;;;23.40;;
57113;SDS011;42994;51.606;9.988;2024-03-08T00:24:49;40.63;;;23.08;;
57113;SDS011;42994;51.606;9.988;2024-03-08T00:27:16;40.65;;;23.85;;
57113;SDS011;42994;51.606;9.988;2024-03-08T00:29:46;39.05;;;24.08;;
57113;SDS011;42994;51.606;9.988;2024-03-08T00:32:13;41.85;;;24.10;;
57113;SDS011;42994;51.606;9.988;2024-03-08T00:34:40;44.70;;;24.25;;
57113;SDS011;42994;51.606;9.988;2024-03-08T00:37:07;40.42;;;23.80;;
57113;SDS011;42994;51.606;9.988;2024-03-08T00:39:34;39.72;;;22.25;;
57113;SDS011;42994;51.606;9.988;2024-03-08T00:42:02;37.58;;;22.55;;
57113;SDS011;42994;51.606;9.988;2024-03-08T00:44:30;41.38;;;22.80;;
57113;SDS011;42994;51.606;9.988;2024-03-08T00:46:57;38.20;;;22.65;;
57113;SDS011;42994;51.606;9.988;2024-03-08T00:49:24;43.90;;;22.73;;
57113;SDS011;42994;51.606;9.988;2024-03-08T00:51:51;39.90;;;22.65;;
57113;SDS011;42994;51.606;9.988;2024-03-08T00:54:18;46.05;;;23.92;;
57113;SDS011;42994;51.606;9.988;2024-03-08T00:56:45;41.85;;;22.48;;
57113;SDS011;42994;51.606;9.988;2024-03-08T00:59:14;41.00;;;22.75;;
57113;SDS011;42994;51.606;9.988;2024-03-08T01:01:41;49.75;;;24.63;;
57113;SDS011;42994;51.606;9.988;2024-03-08T01:04:09;39.40;;;22.27;;
57113;SDS011;42994;51.606;9.988;2024-03-08T01:06:37;43.70;;;24.30;;
57113;SDS011;42994;51.606;9.988;2024-03-08T01:09:04;43.85;;;23.17;;
57113;SDS011;42994;51.606;9.988;2024-03-08T01:11:32;41.20;;;24.80;;
57113;SDS011;42994;51.606;9.988;2024-03-08T01:13:59;46.88;;;23.35;;
57113;SDS011;42994;51.606;9.988;2024-03-08T01:16:28;40.65;;;23.67;;
57113;SDS011;42994;51.606;9.988;2024-03-08T01:18:55;44.08;;;22.38;;
57113;SDS011;42994;51.606;9.988;2024-03-08T01:21:22;42.47;;;24.55;;
57113;SDS011;42994;51.606;9.988;2024-03-08T01:23:49;39.92;;;22.70;;
57113;SDS011;42994;51.606;9.988;2024-03-08T01:26:16;42.58;;;23.92;;
57113;SDS011;42994;51.606;9.988;2024-03-08T01:28:43;46.17;;;25.88;;
57113;SDS011;42994;51.606;9.988;2024-03-08T01:31:10;41.50;;;22.58;;
57113;SDS011;42994;51.606;9.988;2024-03-08T01:33:38;50.30;;;25.40;;
57113;SDS011;42994;51.606;9.988;2024-03-08T01:36:06;46.38;;;23.33;;
57113;SDS011;42994;51.606;9.988;2024-03-08T01:38:33;41.63;;;23.77;;
57113;SDS011;42994;51.606;9.988;2024-03-08T01:41:01;50.97;;;24.67;;
57113;SDS011;42994;51.606;9.988;2024-03-08T01:43:29;45.47;;;24.63;;
57113;SDS011;42994;51.606;9.988;2024-03-08T01:45:56;45.95;;;25.17;;
57113;SDS011;42994;51.606;9.988;2024-03-08T01:48:24;50.67;;;26.38;;
57113;SDS011;42994;51.606;9.988;2024-03-08T01:50:53;49.58;;;25.20;;
57113;SDS011;42994;51.606;9.988;2024-03-08T01:53:21;46.85;;;24.58;;
57113;SDS011;42994;51.606;9.988;2024-03-08T01:55:48;41.45;;;23.63;;
57113;SDS011;42994;51.606;9.988;2024-03-08T01:58:16;48.75;;;25.17;;
57113;SDS011;42994;51.606;9.988;2024-03-08T02:00:47;39.87;;;24.13;;
57113;SDS011;42994;51.606;9.988;2024-03-08T02:03:15;45.72;;;23.48;;
57113;SDS011;42994;51.606;9.988;2024-03-08T02:05:42;45.45;;;23.95;;
57113;SDS011;42994;51.606;9.988;2024-03-08T02:08:11;45.60;;;24.15;;
57113;SDS011;42994;51.606;9.988;2024-03-08T02:10:39;46.25;;;22.73;;
57113;SDS011;42994;51.606;9.988;2024-03-08T02:13:07;48.33;;;24.55;;
57113;SDS011;42994;51.606;9.988;2024-03-08T02:15:49;46.03;;;25.33;;
57113;SDS011;42994;51.606;9.988;2024-03-08T02:20:45;49.88;;;25.05;;
57113;SDS011;42994;51.606;9.988;2024-03-08T02:23:13;51.20;;;25.52;;
57113;SDS011;42994;51.606;9.988;2024-03-08T02:25:40;53.13;;;25.60;;
57113;SDS011;42994;51.606;9.988;2024-03-08T02:28:09;52.55;;;26.80;;
57113;SDS011;42994;51.606;9.988;2024-03-08T02:30:36;45.97;;;25.23;;
57113;SDS011;42994;51.606;9.988;2024-03-08T02:33:04;55.85;;;28.48;;
57113;SDS011;42994;51.606;9.988;2024-03-08T02:35:31;55.35;;;29.23;;
57113;SDS011;42994;51.606;9.988;2024-03-08T02:38:00;47.28;;;25.77;;
57113;SDS011;42994;51.606;9.988;2024-03-08T02:40:26;50.63;;;25.95;;
57113;SDS011;42994;51.606;9.988;2024-03-08T02:42:53;50.20;;;26.73;;
57113;SDS011;42994;51.606;9.988;2024-03-08T02:45:20;55.53;;;27.25;;
57113;SDS011;42994;51.606;9.988;2024-03-08T02:47:47;58.75;;;28.63;;
57113;SDS011;42994;51.606;9.988;2024-03-08T02:50:15;53.88;;;28.30;;
57113;SDS011;42994;51.606;9.988;2024-03-08T02:52:42;55.85;;;27.65;;
57113;SDS011;42994;51.606;9.988;2024-03-08T02:55:13;54.60;;;28.40;;
57113;SDS011;42994;51.606;9.988;2024-03-08T02:57:41;50.35;;;27.90;;
57113;SDS011;42994;51.606;9.988;2024-03-08T03:00:11;57.25;;;29.15;;
57113;SDS011;42994;51.606;9.988;2024-03-08T03:02:41;55.72;;;29.13;;
57113;SDS011;42994;51.606;9.988;2024-03-08T03:05:08;51.40;;;27.35;;
57113;SDS011;42994;51.606;9.988;2024-03-08T03:07:36;46.25;;;27.52;;
57113;SDS011;42994;51.606;9.988;2024-03-08T03:10:04;50.03;;;26.00;;
57113;SDS011;42994;51.606;9.988;2024-03-08T03:12:33;51.92;;;25.67;;
57113;SDS011;42994;51.606;9.988;2024-03-08T03:15:00;53.08;;;28.90;;
57113;SDS011;42994;51.606;9.988;2024-03-08T03:17:27;59.38;;;28.35;;
57113;SDS011;42994;51.606;9.988;2024-03-08T03:19:55;49.33;;;28.48;;
57113;SDS011;42994;51.606;9.988;2024-03-08T03:22:22;51.00;;;27.48;;
57113;SDS011;42994;51.606;9.988;2024-03-08T03:24:50;52.13;;;28.15;;
57113;SDS011;42994;51.606;9.988;2024-03-08T03:27:18;48.70;;;27.25;;
57113;SDS011;42994;51.606;9.988;2024-03-08T03:29:47;49.83;;;27.40;;
57113;SDS011;42994;51.606;9.988;2024-03-08T03:32:14;53.65;;;28.85;;
57113;SDS011;42994;51.606;9.988;2024-03-08T03:34:42;51.72;;;28.42;;
57113;SDS011;42994;51.606;9.988;2024-03-08T03:37:09;50.95;;;26.60;;
57113;SDS011;42994;51.606;9.988;2024-03-08T03:39:37;53.17;;;27.70;;
57113;SDS011;42994;51.606;9.988;2024-03-08T03:42:13;47.75;;;27.55;;
57113;SDS011;42994;51.606;9.988;2024-03-08T03:44:41;45.88;;;25.90;;
57113;SDS011;42994;51.606;9.988;2024-03-08T03:47:10;46.15;;;26.50;;
57113;SDS011;42994;51.606;9.988;2024-03-08T03:49:37;54.22;;;30.45;;
57113;SDS011;42994;51.606;9.988;2024-03-08T03:52:05;56.55;;;28.27;;
57113;SDS011;42994;51.606;9.988;2024-03-08T03:54:33;49.95;;;27.02;;
57113;SDS011;42994;51.606;9.988;2024-03-08T03:57:00;52.30;;;27.10;;
57113;SDS011;42994;51.606;9.988;2024-03-08T03:59:28;51.30;;;27.65;;
57113;SDS011;42994;51.606;9.988;2024-03-08T04:01:55;49.22;;;27.00;;
57113;SDS011;42994;51.606;9.988;2024-03-08T04:04:23;49.50;;;27.75;;
57113;SDS011;42994;51.606;9.988;2024-03-08T04:06:50;47.28;;;27.05;;
57113;SDS011;42994;51.606;9.988;2024-03-08T04:09:17;47.13;;;26.75;;
57113;SDS011;42994;51.606;9.988;2024-03-08T04:11:45;48.28;;;26.48;;
57113;SDS011;42994;51.606;9.988;2024-03-08T04:14:12;49.58;;;25.88;;
57113;SDS011;42994;51.606;9.988;2024-03-08T04:16:39;51.42;;;27.33;;
57113;SDS011;42994;51.606;9.988;2024-03-08T04:19:06;50.22;;;26.58;;
57113;SDS011;42994;51.606;9.988;2024-03-08T04:21:35;54.00;;;27.25;;
57113;SDS011;42994;51.606;9.988;2024-03-08T04:24:02;52.00;;;27.70;;
57113;SDS011;42994;51.606;9.988;2024-03-08T04:26:29;51.65;;;26.08;;
57113;SDS011;42994;51.606;9.988;2024-03-08T04:28:56;48.03;;;25.05;;
57113;SDS011;42994;51.606;9.988;2024-03-08T04:31:23;48.58;;;25.45;;
57113;SDS011;42994;51.606;9.988;2024-03-08T04:33:51;53.40;;;25.70;;
57113;SDS011;42994;51.606;9.988;2024-03-08T04:36:18;51.38;;;26.80;;
57113;SDS011;42994;51.606;9.988;2024-03-08T04:38:47;55.15;;;27.45;;
57113;SDS011;42994;51.606;9.988;2024-03-08T04:41:14;44.45;;;25.05;;
57113;SDS011;42994;51.606;9.988;2024-03-08T04:43:41;46.83;;;25.25;;
57113;SDS011;42994;51.606;9.988;2024-03-08T04:46:08;59.92;;;26.50;;
57113;SDS011;42994;51.606;9.988;2024-03-08T04:48:35;55.33;;;27.88;;
57113;SDS011;42994;51.606;9.988;2024-03-08T04:51:02;53.58;;;27.05;;
57113;SDS011;42994;51.606;9.988;2024-03-08T04:53:30;57.33;;;27.30;;
57113;SDS011;42994;51.606;9.988;2024-03-08T04:56:01;52.72;;;25.95;;
57113;SDS011;42994;51.606;9.988;2024-03-08T04:58:31;51.40;;;26.00;;
57113;SDS011;42994;51.606;9.988;2024-03-08T05:00:59;56.08;;;27.77;;
57113;SDS011;42994;51.606;9.988;2024-03-08T05:03:26;58.35;;;28.17;;
57113;SDS011;42994;51.606;9.988;2024-03-08T05:05:54;52.83;;;28.10;;
57113;SDS011;42994;51.606;9.988;2024-03-08T05:08:21;52.45;;;27.67;;
57113;SDS011;42994;51.606;9.988;2024-03-08T05:10:48;53.42;;;29.17;;
57113;SDS011;42994;51.606;9.988;2024-03-08T05:13:17;54.65;;;28.73;;
57113;SDS011;42994;51.606;9.988;2024-03-08T05:15:44;55.42;;;27.70;;
57113;SDS011;42994;51.606;9.988;2024-03-08T05:18:14;55.50;;;27.30;;
57113;SDS011;42994;51.606;9.988;2024-03-08T05:20:41;52.33;;;26.80;;
57113;SDS011;42994;51.606;9.988;2024-03-08T05:23:08;53.20;;;29.13;;
57113;SDS011;42994;51.606;9.988;2024-03-08T05:25:35;53.97;;;29.52;;
57113;SDS011;42994;51.606;9.988;2024-03-08T05:28:02;50.30;;;28.35;;
57113;SDS011;42994;51.606;9.988;2024-03-08T05:30:31;56.47;;;28.15;;
57113;SDS011;42994;51.606;9.988;2024-03-08T05:32:59;59.28;;;29.15;;
57113;SDS011;42994;51.606;9.988;2024-03-08T05:35:25;56.90;;;29.55;;
57113;SDS011;42994;51.606;9.988;2024-03-08T05:37:52;57.22;;;29.95;;
57113;SDS011;42994;51.606;9.988;2024-03-08T05:40:21;58.28;;;28.92;;
57113;SDS011;42994;51.606;9.988;2024-03-08T05:42:48;58.05;;;28.95;;
57113;SDS011;42994;51.606;9.988;2024-03-08T05:45:15;56.13;;;28.67;;
57113;SDS011;42994;51.606;9.988;2024-03-08T05:47:44;55.75;;;29.00;;
57113;SDS011;42994;51.606;9.988;2024-03-08T05:50:11;57.08;;;28.65;;
57113;SDS011;42994;51.606;9.988;2024-03-08T05:52:38;56.28;;;29.50;;
57113;SDS011;42994;51.606;9.988;2024-03-08T05:55:05;56.25;;;28.50;;
57113;SDS011;42994;51.606;9.988;2024-03-08T05:57:35;52.83;;;28.85;;
57113;SDS011;42994;51.606;9.988;2024-03-08T06:00:03;58.78;;;28.77;;
57113;SDS011;42994;51.606;9.988;2024-03-08T06:02:37;58.10;;;28.63;;
57113;SDS011;42994;51.606;9.988;2024-03-08T06:05:10;61.53;;;29.70;;
57113;SDS011;42994;51.606;9.988;2024-03-08T06:07:37;61.67;;;29.05;;
57113;SDS011;42994;51.606;9.988;2024-03-08T06:10:06;58.88;;;30.60;;
57113;SDS011;42994;51.606;9.988;2024-03-08T06:12:35;56.47;;;29.23;;
57113;SDS011;42994;51.606;9.988;2024-03-08T06:15:05;62.25;;;28.70;;
57113;SDS011;42994;51.606;9.988;2024-03-08T06:17:34;56.25;;;30.17;;
57113;SDS011;42994;51.606;9.988;2024-03-08T06:20:01;55.53;;;29.65;;
57113;SDS011;42994;51.606;9.988;2024-03-08T06:22:30;57.72;;;31.00;;
57113;SDS011;42994;51.606;9.988;2024-03-08T06:24:57;55.75;;;29.42;;
57113;SDS011;42994;51.606;9.988;2024-03-08T06:27:24;58.50;;;29.50;;
57113;SDS011;42994;51.606;9.988;2024-03-08T06:29:51;61.10;;;30.05;;
57113;SDS011;42994;51.606;9.988;2024-03-08T06:32:17;59.50;;;29.60;;
57113;SDS011;42994;51.606;9.988;2024-03-08T06:34:44;57.08;;;28.88;;
57113;SDS011;42994;51.606;9.988;2024-03-08T06:37:13;63.78;;;29.85;;
57113;SDS011;42994;51.606;9.988;2024-03-08T06:39:41;56.95;;;30.27;;
57113;SDS011;42994;51.606;9.988;2024-03-08T06:42:09;60.25;;;31.58;;
57113;SDS011;42994;51.606;9.988;2024-03-08T06:44:37;55.05;;;29.83;;
57113;SDS011;42994;51.606;9.988;2024-03-08T06:47:11;59.17;;;31.95;;
57113;SDS011;42994;51.606;9.988;2024-03-08T06:49:37;63.50;;;30.42;;
57113;SDS011;42994;51.606;9.988;2024-03-08T06:52:05;60.67;;;30.65;;
57113;SDS011;42994;51.606;9.988;2024-03-08T06:54:34;61.58;;;31.40;;
57113;SDS011;42994;51.606;9.988;2024-03-08T06:57:02;64.70;;;32.72;;
57113;SDS011;42994;51.606;9.988;2024-03-08T06:59:30;64.47;;;32.85;;
57113;SDS011;42994;51.606;9.988;2024-03-08T07:01:57;66.53;;;31.52;;
57113;SDS011;42994;51.606;9.988;2024-03-08T07:04:24;61.45;;;32.13;;
57113;SDS011;42994;51.606;9.988;2024-03-08T07:06:55;62.78;;;30.63;;
57113;SDS011;42994;51.606;9.988;2024-03-08T07:09:22;63.00;;;31.17;;
57113;SDS011;42994;51.606;9.988;2024-03-08T07:11:50;59.40;;;30.58;;
57113;SDS011;42994;51.606;9.988;2024-03-08T07:14:22;57.38;;;30.55;;
57113;SDS011;42994;51.606;9.988;2024-03-08T07:16:49;60.50;;;29.50;;
57113;SDS011;42994;51.606;9.988;2024-03-08T07:19:17;59.55;;;31.70;;
57113;SDS011;42994;51.606;9.988;2024-03-08T07:21:44;58.38;;;31.42;;
57113;SDS011;42994;51.606;9.988;2024-03-08T07:24:12;58.40;;;30.90;;
57113;SDS011;42994;51.606;9.988;2024-03-08T07:27:03;63.75;;;31.73;;
57113;SDS011;42994;51.606;9.988;2024-03-08T07:29:32;62.90;;;31.50;;
57113;SDS011;42994;51.606;9.988;2024-03-08T07:31:59;62.08;;;31.23;;
57113;SDS011;42994;51.606;9.988;2024-03-08T07:34:38;58.65;;;30.83;;
57113;SDS011;42994;51.606;9.988;2024-03-08T07:37:05;56.55;;;29.55;;
57113;SDS011;42994;51.606;9.988;2024-03-08T07:39:36;61.83;;;29.90;;
57113;SDS011;42994;51.606;9.988;2024-03-08T07:42:04;57.33;;;30.25;;
57113;SDS011;42994;51.606;9.988;2024-03-08T07:44:33;56.47;;;30.20;;
57113;SDS011;42994;51.606;9.988;2024-03-08T07:47:00;64.22;;;31.45;;
57113;SDS011;42994;51.606;9.988;2024-03-08T07:49:28;61.28;;;32.17;;
57113;SDS011;42994;51.606;9.988;2024-03-08T07:51:55;63.72;;;32.67;;
57113;SDS011;42994;51.606;9.988;2024-03-08T07:54:23;66.07;;;30.48;;
57113;SDS011;42994;51.606;9.988;2024-03-08T07:56:51;61.75;;;31.95;;
57113;SDS011;42994;51.606;9.988;2024-03-08T07:59:18;63.03;;;31.08;;
57113;SDS011;42994;51.606;9.988;2024-03-08T08:01:48;60.10;;;30.90;;
57113;SDS011;42994;51.606;9.988;2024-03-08T08:04:15;59.58;;;31.15;;
57113;SDS011;42994;51.606;9.988;2024-03-08T08:06:44;59.78;;;30.83;;
57113;SDS011;42994;51.606;9.988;2024-03-08T08:09:10;60.50;;;31.60;;
57113;SDS011;42994;51.606;9.988;2024-03-08T08:11:40;59.90;;;31.67;;
57113;SDS011;42994;51.606;9.988;2024-03-08T08:14:08;63.70;;;30.48;;
57113;SDS011;42994;51.606;9.988;2024-03-08T08:16:36;71.15;;;32.35;;
57113;SDS011;42994;51.606;9.988;2024-03-08T08:19:05;58.03;;;30.45;;
57113;SDS011;42994;51.606;9.988;2024-03-08T08:21:34;61.42;;;30.23;;
57113;SDS011;42994;51.606;9.988;2024-03-08T08:24:02;55.45;;;28.52;;
57113;SDS011;42994;51.606;9.988;2024-03-08T08:26:29;61.90;;;30.95;;
57113;SDS011;42994;51.606;9.988;2024-03-08T08:28:58;61.00;;;30.38;;
57113;SDS011;42994;51.606;9.988;2024-03-08T08:31:24;59.08;;;29.85;;
57113;SDS011;42994;51.606;9.988;2024-03-08T08:33:52;53.90;;;31.15;;
57113;SDS011;42994;51.606;9.988;2024-03-08T08:36:25;58.67;;;29.25;;
57113;SDS011;42994;51.606;9.988;2024-03-08T08:38:55;60.88;;;30.30;;
57113;SDS011;42994;51.606;9.988;2024-03-08T08:41:23;61.92;;;31.13;;
57113;SDS011;42994;51.606;9.988;2024-03-08T08:43:50;63.25;;;29.15;;
57113;SDS011;42994;51.606;9.988;2024-03-08T08:46:17;60.55;;;31.25;;
57113;SDS011;42994;51.606;9.988;2024-03-08T08:48:44;60.92;;;30.65;;
57113;SDS011;42994;51.606;9.988;2024-03-08T08:51:12;64.00;;;30.80;;
57113;SDS011;42994;51.606;9.988;2024-03-08T08:53:40;52.10;;;29.45;;
57113;SDS011;42994;51.606;9.988;2024-03-08T08:56:10;58.35;;;29.80;;
57113;SDS011;42994;51.606;9.988;2024-03-08T08:58:38;57.55;;;29.98;;
57113;SDS011;42994;51.606;9.988;2024-03-08T09:01:07;57.60;;;28.88;;
57113;SDS011;42994;51.606;9.988;2024-03-08T09:03:35;58.95;;;29.85;;
57113;SDS011;42994;51.606;9.988;2024-03-08T09:06:02;51.20;;;27.58;;
57113;SDS011;42994;51.606;9.988;2024-03-08T09:08:30;50.00;;;28.27;;
57113;SDS011;42994;51.606;9.988;2024-03-08T09:10:59;56.20;;;28.90;;
57113;SDS011;42994;51.606;9.988;2024-03-08T09:13:26;57.05;;;28.48;;
57113;SDS011;42994;51.606;9.988;2024-03-08T09:15:53;55.90;;;29.17;;
57113;SDS011;42994;51.606;9.988;2024-03-08T09:18:20;56.30;;;29.55;;
57113;SDS011;42994;51.606;9.988;2024-03-08T09:20:47;55.28;;;29.90;;
57113;SDS011;42994;51.606;9.988;2024-03-08T09:23:14;53.75;;;29.35;;
57113;SDS011;42994;51.606;9.988;2024-03-08T09:25:42;52.17;;;30.25;;
57113;SDS011;42994;51.606;9.988;2024-03-08T09:28:11;55.75;;;29.77;;
57113;SDS011;42994;51.606;9.988;2024-03-08T09:30:38;57.70;;;28.63;;
57113;SDS011;42994;51.606;9.988;2024-03-08T09:33:05;48.35;;;27.88;;
57113;SDS011;42994;51.606;9.988;2024-03-08T09:35:32;50.90;;;26.85;;
57113;SDS011;42994;51.606;9.988;2024-03-08T09:37:59;50.50;;;27.52;;
57113;SDS011;42994;51.606;9.988;2024-03-08T09:40:26;55.28;;;28.02;;
57113;SDS011;42994;51.606;9.988;2024-03-08T09:42:53;48.30;;;26.60;;
57113;SDS011;42994;51.606;9.988;2024-03-08T09:45:24;51.55;;;27.33;;
57113;SDS011;42994;51.606;9.988;2024-03-08T09:47:54;45.08;;;25.35;;
57113;SDS011;42994;51.606;9.988;2024-03-08T09:50:22;44.63;;;25.48;;
57113;SDS011;42994;51.606;9.988;2024-03-08T09:52:51;43.92;;;23.13;;
57113;SDS011;42994;51.606;9.988;2024-03-08T09:55:18;47.47;;;25.30;;
57113;SDS011;42994;51.606;9.988;2024-03-08T09:57:47;45.42;;;25.48;;
57113;SDS011;42994;51.606;9.988;2024-03-08T10:00:30;52.90;;;25.80;;
57113;SDS011;42994;51.606;9.988;2024-03-08T10:03:00;47.05;;;25.30;;
57113;SDS011;42994;51.606;9.988;2024-03-08T10:05:27;43.97;;;26.05;;
57113;SDS011;42994;51.606;9.988;2024-03-08T10:07:54;44.63;;;25.45;;
57113;SDS011;42994;51.606;9.988;2024-03-08T10:10:21;50.72;;;25.50;;
57113;SDS011;42994;51.606;9.988;2024-03-08T10:12:48;45.67;;;25.55;;
57113;SDS011;42994;51.606;9.988;2024-03-08T10:15:16;47.03;;;26.63;;
57113;SDS011;42994;51.606;9.988;2024-03-08T10:17:44;47.08;;;26.25;;
57113;SDS011;42994;51.606;9.988;2024-03-08T10:20:15;43.22;;;25.33;;
57113;SDS011;42994;51.606;9.988;2024-03-08T10:22:44;41.05;;;23.45;;
57113;SDS011;42994;51.606;9.988;2024-03-08T10:25:12;43.15;;;25.33;;
57113;SDS011;42994;51.606;9.988;2024-03-08T10:27:39;39.42;;;22.58;;
57113;SDS011;42994;51.606;9.988;2024-03-08T10:30:08;38.63;;;22.50;;
57113;SDS011;42994;51.606;9.988;2024-03-08T10:32:39;42.60;;;22.50;;
57113;SDS011;42994;51.606;9.988;2024-03-08T10:35:08;40.30;;;22.75;;
57113;SDS011;42994;51.606;9.988;2024-03-08T10:37:43;39.08;;;21.80;;
57113;SDS011;42994;51.606;9.988;2024-03-08T10:40:13;37.65;;;21.60;;
57113;SDS011;42994;51.606;9.988;2024-03-08T10:42:47;40.20;;;22.50;;
57113;SDS011;42994;51.606;9.988;2024-03-08T10:45:23;38.55;;;21.98;;
57113;SDS011;42994;51.606;9.988;2024-03-08T10:48:02;40.42;;;22.85;;
57113;SDS011;42994;51.606;9.988;2024-03-08T10:50:36;40.58;;;21.63;;
57113;SDS011;42994;51.606;9.988;2024-03-08T10:53:05;43.63;;;22.80;;
57113;SDS011;42994;51.606;9.988;2024-03-08T10:55:34;35.53;;;21.40;;
57113;SDS011;42994;51.606;9.988;2024-03-08T10:58:03;41.50;;;23.00;;
57113;SDS011;42994;51.606;9.988;2024-03-08T11:00:31;44.30;;;22.92;;
57113;SDS011;42994;51.606;9.988;2024-03-08T11:02:58;40.50;;;21.48;;
57113;SDS011;42994;51.606;9.988;2024-03-08T11:05:32;39.00;;;21.80;;
57113;SDS011;42994;51.606;9.988;2024-03-08T11:08:06;43.97;;;22.15;;
57113;SDS011;42994;51.606;9.988;2024-03-08T11:10:51;35.55;;;21.45;;
57113;SDS011;42994;51.606;9.988;2024-03-08T11:14:42;38.75;;;22.08;;
57113;SDS011;42994;51.606;9.988;2024-03-08T11:16:39;40.90;;;20.73;;
57113;SDS011;42994;51.606;9.988;2024-03-08T11:19:28;39.65;;;22.15;;
57113;SDS011;42994;51.606;9.988;2024-03-08T11:22:01;37.70;;;19.98;;
57113;SDS011;42994;51.606;9.988;2024-03-08T11:27:48;40.30;;;20.98;;
57113;SDS011;42994;51.606;9.988;2024-03-08T11:30:21;35.65;;;20.40;;
57113;SDS011;42994;51.606;9.988;2024-03-08T11:32:50;37.85;;;20.67;;
57113;SDS011;42994;51.606;9.988;2024-03-08T11:35:18;39.65;;;21.55;;
57113;SDS011;42994;51.606;9.988;2024-03-08T11:37:48;36.50;;;20.23;;
57113;SDS011;42994;51.606;9.988;2024-03-08T11:40:15;37.20;;;21.85;;
57113;SDS011;42994;51.606;9.988;2024-03-08T11:42:44;36.42;;;20.88;;
57113;SDS011;42994;51.606;9.988;2024-03-08T11:45:13;37.22;;;20.33;;
57113;SDS011;42994;51.606;9.988;2024-03-08T11:47:41;35.08;;;20.55;;
57113;SDS011;42994;51.606;9.988;2024-03-08T11:50:11;35.75;;;20.70;;
57113;SDS011;42994;51.606;9.988;2024-03-08T11:52:38;36.20;;;21.42;;
57113;SDS011;42994;51.606;9.988;2024-03-08T11:55:08;38.35;;;21.67;;
57113;SDS011;42994;51.606;9.988;2024-03-08T11:57:35;37.55;;;21.75;;
57113;SDS011;42994;51.606;9.988;2024-03-08T12:00:03;39.60;;;22.00;;
57113;SDS011;42994;51.606;9.988;2024-03-08T12:02:35;37.70;;;22.80;;
57113;SDS011;42994;51.606;9.988;2024-03-08T12:08:01;48.00;;;22.83;;
57113;SDS011;42994;51.606;9.988;2024-03-08T12:10:33;43.08;;;24.00;;
57113;SDS011;42994;51.606;9.988;2024-03-08T12:13:00;40.85;;;22.67;;
57113;SDS011;42994;51.606;9.988;2024-03-08T12:15:28;37.25;;;21.92;;
57113;SDS011;42994;51.606;9.988;2024-03-08T12:17:58;48.50;;;23.13;;
57113;SDS011;42994;51.606;9.988;2024-03-08T12:20:26;35.92;;;21.95;;
57113;SDS011;42994;51.606;9.988;2024-03-08T12:22:55;39.47;;;22.90;;
57113;SDS011;42994;51.606;9.988;2024-03-08T12:25:23;33.45;;;20.40;;
57113;SDS011;42994;51.606;9.988;2024-03-08T12:27:55;41.65;;;23.52;;
57113;SDS011;42994;51.606;9.988;2024-03-08T12:30:23;39.30;;;22.50;;
57113;SDS011;42994;51.606;9.988;2024-03-08T12:32:53;43.10;;;22.45;;
57113;SDS011;42994;51.606;9.988;2024-03-08T12:35:23;39.97;;;23.77;;
57113;SDS011;42994;51.606;9.988;2024-03-08T12:37:52;39.83;;;23.00;;
57113;SDS011;42994;51.606;9.988;2024-03-08T12:40:25;40.15;;;23.75;;
57113;SDS011;42994;51.606;9.988;2024-03-08T12:42:57;41.85;;;22.80;;
57113;SDS011;42994;51.606;9.988;2024-03-08T12:45:24;34.85;;;21.25;;
57113;SDS011;42994;51.606;9.988;2024-03-08T12:47:52;37.38;;;22.15;;
57113;SDS011;42994;51.606;9.988;2024-03-08T12:50:19;37.72;;;22.50;;
57113;SDS011;42994;51.606;9.988;2024-03-08T12:52:47;36.60;;;21.17;;
57113;SDS011;42994;51.606;9.988;2024-03-08T12:58:39;34.78;;;20.75;;
57113;SDS011;42994;51.606;9.988;2024-03-08T13:01:13;36.88;;;21.13;;
57113;SDS011;42994;51.606;9.988;2024-03-08T13:03:54;34.60;;;20.95;;
57113;SDS011;42994;51.606;9.988;2024-03-08T13:06:21;38.63;;;22.88;;
57113;SDS011;42994;51.606;9.988;2024-03-08T13:08:49;42.22;;;22.80;;
57113;SDS011;42994;51.606;9.988;2024-03-08T13:11:18;42.85;;;24.48;;
57113;SDS011;42994;51.606;9.988;2024-03-08T13:13:47;42.50;;;24.27;;
57113;SDS011;42994;51.606;9.988;2024-03-08T13:16:15;47.50;;;24.45;;
57113;SDS011;42994;51.606;9.988;2024-03-08T13:18:44;43.50;;;24.90;;
57113;SDS011;42994;51.606;9.988;2024-03-08T13:21:14;39.60;;;23.52;;
57113;SDS011;42994;51.606;9.988;2024-03-08T13:23:45;44.33;;;25.20;;
57113;SDS011;42994;51.606;9.988;2024-03-08T13:26:14;39.13;;;23.10;;
57113;SDS011;42994;51.606;9.988;2024-03-08T13:28:47;45.05;;;25.20;;
57113;SDS011;42994;51.606;9.988;2024-03-08T13:31:19;41.92;;;24.13;;
57113;SDS011;42994;51.606;9.988;2024-03-08T13:33:47;46.28;;;23.25;;
57113;SDS011;42994;51.606;9.988;2024-03-08T13:36:17;41.92;;;24.05;;
57113;SDS011;42994;51.606;9.988;2024-03-08T13:38:56;43.42;;;24.92;;
57113;SDS011;42994;51.606;9.988;2024-03-08T13:41:26;38.42;;;24.10;;
57113;SDS011;42994;51.606;9.988;2024-03-08T13:43:55;43.72;;;24.77;;
57113;SDS011;42994;51.606;9.988;2024-03-08T13:46:22;43.92;;;25.60;;
57113;SDS011;42994;51.606;9.988;2024-03-08T13:48:51;44.30;;;24.98;;
57113;SDS011;42994;51.606;9.988;2024-03-08T13:51:27;42.33;;;26.27;;
57113;SDS011;42994;51.606;9.988;2024-03-08T13:53:56;44.58;;;25.27;;
57113;SDS011;42994;51.606;9.988;2024-03-08T13:56:22;44.58;;;26.17;;
57113;SDS011;42994;51.606;9.988;2024-03-08T13:58:49;41.95;;;25.08;;
57113;SDS011;42994;51.606;9.988;2024-03-08T14:01:18;44.53;;;24.88;;
57113;SDS011;42994;51.606;9.988;2024-03-08T14:03:46;45.53;;;26.45;;
57113;SDS011;42994;51.606;9.988;2024-03-08T14:06:13;41.17;;;25.58;;
57113;SDS011;42994;51.606;9.988;2024-03-08T14:08:40;44.22;;;25.67;;
57113;SDS011;42994;51.606;9.988;2024-03-08T14:11:07;43.50;;;25.35;;
57113;SDS011;42994;51.606;9.988;2024-03-08T14:13:40;44.20;;;25.65;;
57113;SDS011;42994;51.606;9.988;2024-03-08T14:16:10;49.05;;;26.05;;
57113;SDS011;42994;51.606;9.988;2024-03-08T14:18:39;55.22;;;26.67;;
57113;SDS011;42994;51.606;9.988;2024-03-08T14:21:07;47.05;;;26.83;;
57113;SDS011;42994;51.606;9.988;2024-03-08T14:23:35;46.33;;;24.48;;
57113;SDS011;42994;51.606;9.988;2024-03-08T14:26:03;42.85;;;25.02;;
57113;SDS011;42994;51.606;9.988;2024-03-08T14:28:32;42.78;;;25.85;;
57113;SDS011;42994;51.606;9.988;2024-03-08T14:42:55;44.50;;;24.58;;
57113;SDS011;42994;51.606;9.988;2024-03-08T14:45:23;43.00;;;25.60;;
57113;SDS011;42994;51.606;9.988;2024-03-08T14:47:51;44.85;;;23.33;;
57113;SDS011;42994;51.606;9.988;2024-03-08T14:50:22;42.38;;;25.08;;
57113;SDS011;42994;51.606;9.988;2024-03-08T14:52:50;38.17;;;22.35;;